sensor_id;sensor_type;location;lat;lon;timestamp;P1;durP1;ratioP1;P2;durP2;ratioP2
12587;SDS011;6359;51.450;7.346;2022-08-01T00:03:22;16.85;;;11.75;;
12587;SDS011;6359;51.450;7.346;2022-08-01T00:05:49;16.25;;;12.07;;
12587;SDS011;6359;51.450;7.346;2022-08-01T00:08:19;13.95;;;11.68;;
12587;SDS011;6359;51.450;7.346;2022-08-01T00:10:50;15.30;;;12.38;;
12587;SDS011;6359;51.450;7.346;2022-08-01T00:13:29;13.48;;;11.30;;
12587;SDS011;6359;51.450;7.346;2022-08-01T00:16:15;12.57;;;11.13;;
12587;SDS011;6359;51.450;7.346;2022-08-01T00:19:12;14.23;;;10.75;;
12587;SDS011;6359;51.450;7.346;2022-08-01T00:21:50;14.27;;;10.25;;
12587;SDS011;6359;51.450;7.346;2022-08-01T00:24:17;13.30;;;10.90;;
12587;SDS011;6359;51.450;7.346;2022-08-01T00:26:46;10.93;;;9.55;;
12587;SDS011;6359;51.450;7.346;2022-08-01T00:29:13;12.00;;;10.07;;
12587;SDS011;6359;51.450;7.346;2022-08-01T00:31:45;11.80;;;9.32;;
12587;SDS011;6359;51.450;7.346;2022-08-01T00:34:13;12.30;;;10.77;;
12587;SDS011;6359;51.450;7.346;2022-08-01T00:36:46;11.48;;;10.27;;
12587;SDS011;6359;51.450;7.346;2022-08-01T00:39:21;15.07;;;10.48;;
12587;SDS011;6359;51.450;7.346;2022-08-01T00:41:55;12.32;;;11.02;;
12587;SDS011;6359;51.450;7.346;2022-08-01T00:44:27;13.48;;;11.30;;
12587;SDS011;6359;51.450;7.346;2022-08-01T00:47:09;13.05;;;11.75;;
12587;SDS011;6359;51.450;7.346;2022-08-01T00:49:40;14.73;;;13.10;;
12587;SDS011;6359;51.450;7.346;2022-08-01T00:52:14;19.38;;;14.55;;
12587;SDS011;6359;51.450;7.346;2022-08-01T00:54:53;18.23;;;15.98;;
12587;SDS011;6359;51.450;7.346;2022-08-01T00:57:49;19.25;;;15.77;;
12587;SDS011;6359;51.450;7.346;2022-08-01T01:01:24;24.80;;;18.50;;
12587;SDS011;6359;51.450;7.346;2022-08-01T01:03:39;24.55;;;19.55;;
12587;SDS011;6359;51.450;7.346;2022-08-01T01:06:16;24.67;;;20.70;;
12587;SDS011;6359;51.450;7.346;2022-08-01T01:09:04;27.48;;;22.30;;
12587;SDS011;6359;51.450;7.346;2022-08-01T01:11:49;27.88;;;22.58;;
12587;SDS011;6359;51.450;7.346;2022-08-01T01:17:48;31.30;;;22.83;;
12587;SDS011;6359;51.450;7.346;2022-08-01T01:20:41;26.90;;;21.55;;
12587;SDS011;6359;51.450;7.346;2022-08-01T01:26:45;32.55;;;23.60;;
12587;SDS011;6359;51.450;7.346;2022-08-01T01:29:38;31.10;;;23.70;;
12587;SDS011;6359;51.450;7.346;2022-08-01T01:32:35;29.77;;;23.90;;
12587;SDS011;6359;51.450;7.346;2022-08-01T01:38:00;27.30;;;22.17;;
12587;SDS011;6359;51.450;7.346;2022-08-01T01:40:30;28.05;;;22.70;;
12587;SDS011;6359;51.450;7.346;2022-08-01T01:42:58;31.52;;;23.77;;
12587;SDS011;6359;51.450;7.346;2022-08-01T01:45:27;33.70;;;24.27;;
12587;SDS011;6359;51.450;7.346;2022-08-01T01:47:56;30.13;;;23.40;;
12587;SDS011;6359;51.450;7.346;2022-08-01T01:50:24;30.08;;;24.23;;
12587;SDS011;6359;51.450;7.346;2022-08-01T01:52:52;30.90;;;22.52;;
12587;SDS011;6359;51.450;7.346;2022-08-01T01:55:21;31.58;;;23.42;;
12587;SDS011;6359;51.450;7.346;2022-08-01T01:57:50;29.17;;;22.77;;
12587;SDS011;6359;51.450;7.346;2022-08-01T02:00:18;28.40;;;22.40;;
12587;SDS011;6359;51.450;7.346;2022-08-01T02:02:46;30.20;;;22.42;;
12587;SDS011;6359;51.450;7.346;2022-08-01T02:05:14;28.65;;;22.65;;
12587;SDS011;6359;51.450;7.346;2022-08-01T02:07:41;26.25;;;22.20;;
12587;SDS011;6359;51.450;7.346;2022-08-01T02:10:10;30.38;;;22.70;;
12587;SDS011;6359;51.450;7.346;2022-08-01T02:12:40;28.05;;;23.38;;
12587;SDS011;6359;51.450;7.346;2022-08-01T02:15:10;33.65;;;23.00;;
12587;SDS011;6359;51.450;7.346;2022-08-01T02:17:39;30.23;;;22.27;;
12587;SDS011;6359;51.450;7.346;2022-08-01T02:20:11;31.23;;;22.33;;
12587;SDS011;6359;51.450;7.346;2022-08-01T02:22:40;33.70;;;24.23;;
12587;SDS011;6359;51.450;7.346;2022-08-01T02:25:10;35.60;;;23.08;;
12587;SDS011;6359;51.450;7.346;2022-08-01T02:27:43;29.15;;;22.27;;
12587;SDS011;6359;51.450;7.346;2022-08-01T02:30:16;27.13;;;21.35;;
12587;SDS011;6359;51.450;7.346;2022-08-01T02:32:44;28.02;;;22.67;;
12587;SDS011;6359;51.450;7.346;2022-08-01T02:35:18;30.33;;;22.02;;
12587;SDS011;6359;51.450;7.346;2022-08-01T02:37:49;34.30;;;23.70;;
12587;SDS011;6359;51.450;7.346;2022-08-01T02:40:17;28.73;;;21.92;;
12587;SDS011;6359;51.450;7.346;2022-08-01T02:42:48;28.42;;;21.58;;
12587;SDS011;6359;51.450;7.346;2022-08-01T02:45:17;31.35;;;22.50;;
12587;SDS011;6359;51.450;7.346;2022-08-01T02:47:45;29.83;;;22.92;;
12587;SDS011;6359;51.450;7.346;2022-08-01T02:50:15;31.40;;;23.27;;
12587;SDS011;6359;51.450;7.346;2022-08-01T02:52:44;35.05;;;23.90;;
12587;SDS011;6359;51.450;7.346;2022-08-01T02:55:14;28.40;;;22.27;;
12587;SDS011;6359;51.450;7.346;2022-08-01T02:57:42;36.22;;;21.45;;
12587;SDS011;6359;51.450;7.346;2022-08-01T03:00:12;29.75;;;22.38;;
12587;SDS011;6359;51.450;7.346;2022-08-01T03:02:39;28.92;;;21.38;;
12587;SDS011;6359;51.450;7.346;2022-08-01T03:05:07;31.50;;;21.60;;
12587;SDS011;6359;51.450;7.346;2022-08-01T03:07:37;39.05;;;23.60;;
12587;SDS011;6359;51.450;7.346;2022-08-01T03:10:05;36.13;;;23.63;;
12587;SDS011;6359;51.450;7.346;2022-08-01T03:12:33;30.70;;;22.80;;
12587;SDS011;6359;51.450;7.346;2022-08-01T03:15:02;33.03;;;23.75;;
12587;SDS011;6359;51.450;7.346;2022-08-01T03:17:31;29.58;;;22.30;;
12587;SDS011;6359;51.450;7.346;2022-08-01T03:20:00;30.13;;;22.83;;
12587;SDS011;6359;51.450;7.346;2022-08-01T03:22:30;32.80;;;22.40;;
12587;SDS011;6359;51.450;7.346;2022-08-01T03:25:00;26.95;;;22.13;;
12587;SDS011;6359;51.450;7.346;2022-08-01T03:27:29;30.55;;;21.88;;
12587;SDS011;6359;51.450;7.346;2022-08-01T03:29:56;28.77;;;20.88;;
12587;SDS011;6359;51.450;7.346;2022-08-01T03:32:25;32.05;;;22.15;;
12587;SDS011;6359;51.450;7.346;2022-08-01T03:34:54;34.83;;;22.73;;
12587;SDS011;6359;51.450;7.346;2022-08-01T03:37:21;33.25;;;22.95;;
12587;SDS011;6359;51.450;7.346;2022-08-01T03:39:54;35.75;;;24.98;;
12587;SDS011;6359;51.450;7.346;2022-08-01T03:42:27;33.58;;;24.17;;
12587;SDS011;6359;51.450;7.346;2022-08-01T03:44:59;31.40;;;24.33;;
12587;SDS011;6359;51.450;7.346;2022-08-01T03:47:30;33.65;;;24.92;;
12587;SDS011;6359;51.450;7.346;2022-08-01T03:49:59;33.65;;;26.02;;
12587;SDS011;6359;51.450;7.346;2022-08-01T03:52:29;35.85;;;24.58;;
12587;SDS011;6359;51.450;7.346;2022-08-01T03:54:58;32.28;;;24.13;;
12587;SDS011;6359;51.450;7.346;2022-08-01T03:57:29;32.63;;;24.25;;
12587;SDS011;6359;51.450;7.346;2022-08-01T03:59:56;32.65;;;24.98;;
12587;SDS011;6359;51.450;7.346;2022-08-01T04:02:25;33.15;;;25.33;;
12587;SDS011;6359;51.450;7.346;2022-08-01T04:04:53;35.05;;;25.48;;
12587;SDS011;6359;51.450;7.346;2022-08-01T04:07:21;34.25;;;25.23;;
12587;SDS011;6359;51.450;7.346;2022-08-01T04:09:49;33.72;;;24.52;;
12587;SDS011;6359;51.450;7.346;2022-08-01T04:12:16;35.53;;;26.58;;
12587;SDS011;6359;51.450;7.346;2022-08-01T04:14:45;34.88;;;25.42;;
12587;SDS011;6359;51.450;7.346;2022-08-01T04:17:12;34.75;;;24.98;;
12587;SDS011;6359;51.450;7.346;2022-08-01T04:19:39;35.15;;;24.10;;
12587;SDS011;6359;51.450;7.346;2022-08-01T04:22:06;33.03;;;22.38;;
12587;SDS011;6359;51.450;7.346;2022-08-01T04:24:35;33.90;;;23.33;;
12587;SDS011;6359;51.450;7.346;2022-08-01T04:27:04;36.20;;;24.25;;
12587;SDS011;6359;51.450;7.346;2022-08-01T04:29:35;30.30;;;22.15;;
12587;SDS011;6359;51.450;7.346;2022-08-01T04:32:05;29.50;;;22.48;;
12587;SDS011;6359;51.450;7.346;2022-08-01T04:34:35;31.73;;;24.30;;
12587;SDS011;6359;51.450;7.346;2022-08-01T04:37:06;38.55;;;23.65;;
12587;SDS011;6359;51.450;7.346;2022-08-01T04:39:35;29.88;;;22.30;;
12587;SDS011;6359;51.450;7.346;2022-08-01T04:42:06;27.63;;;21.55;;
12587;SDS011;6359;51.450;7.346;2022-08-01T04:44:33;30.23;;;21.20;;
12587;SDS011;6359;51.450;7.346;2022-08-01T04:47:00;27.50;;;20.38;;
12587;SDS011;6359;51.450;7.346;2022-08-01T04:49:31;28.77;;;19.98;;
12587;SDS011;6359;51.450;7.346;2022-08-01T04:51:59;25.92;;;19.25;;
12587;SDS011;6359;51.450;7.346;2022-08-01T04:54:27;29.60;;;18.88;;
12587;SDS011;6359;51.450;7.346;2022-08-01T04:56:55;24.48;;;19.33;;
12587;SDS011;6359;51.450;7.346;2022-08-01T04:59:24;29.83;;;19.85;;
12587;SDS011;6359;51.450;7.346;2022-08-01T05:02:07;24.20;;;18.27;;
12587;SDS011;6359;51.450;7.346;2022-08-01T05:04:36;28.38;;;18.50;;
12587;SDS011;6359;51.450;7.346;2022-08-01T05:07:04;26.50;;;19.15;;
12587;SDS011;6359;51.450;7.346;2022-08-01T05:09:32;23.55;;;16.40;;
12587;SDS011;6359;51.450;7.346;2022-08-01T05:12:01;24.10;;;17.35;;
12587;SDS011;6359;51.450;7.346;2022-08-01T05:14:29;23.15;;;16.55;;
12587;SDS011;6359;51.450;7.346;2022-08-01T05:16:57;21.58;;;16.13;;
12587;SDS011;6359;51.450;7.346;2022-08-01T05:19:24;18.67;;;15.23;;
12587;SDS011;6359;51.450;7.346;2022-08-01T05:21:53;22.98;;;15.20;;
12587;SDS011;6359;51.450;7.346;2022-08-01T05:24:20;20.85;;;14.90;;
12587;SDS011;6359;51.450;7.346;2022-08-01T05:26:47;21.88;;;15.80;;
12587;SDS011;6359;51.450;7.346;2022-08-01T05:29:15;23.17;;;15.68;;
12587;SDS011;6359;51.450;7.346;2022-08-01T05:31:42;20.27;;;14.65;;
12587;SDS011;6359;51.450;7.346;2022-08-01T05:34:09;23.08;;;16.50;;
12587;SDS011;6359;51.450;7.346;2022-08-01T05:36:35;22.15;;;15.32;;
12587;SDS011;6359;51.450;7.346;2022-08-01T05:39:04;23.05;;;15.50;;
12587;SDS011;6359;51.450;7.346;2022-08-01T05:41:31;20.17;;;15.25;;
12587;SDS011;6359;51.450;7.346;2022-08-01T05:43:59;18.27;;;13.73;;
12587;SDS011;6359;51.450;7.346;2022-08-01T05:46:26;17.45;;;14.07;;
12587;SDS011;6359;51.450;7.346;2022-08-01T05:48:53;18.05;;;14.05;;
12587;SDS011;6359;51.450;7.346;2022-08-01T05:51:20;16.00;;;13.57;;
12587;SDS011;6359;51.450;7.346;2022-08-01T05:53:47;16.17;;;13.25;;
12587;SDS011;6359;51.450;7.346;2022-08-01T05:56:15;14.65;;;13.15;;
12587;SDS011;6359;51.450;7.346;2022-08-01T05:58:42;16.10;;;13.80;;
12587;SDS011;6359;51.450;7.346;2022-08-01T06:01:09;17.80;;;13.50;;
12587;SDS011;6359;51.450;7.346;2022-08-01T06:03:36;14.85;;;12.35;;
12587;SDS011;6359;51.450;7.346;2022-08-01T06:06:03;13.75;;;11.85;;
12587;SDS011;6359;51.450;7.346;2022-08-01T06:08:31;15.15;;;11.38;;
12587;SDS011;6359;51.450;7.346;2022-08-01T06:10:58;14.07;;;10.93;;
12587;SDS011;6359;51.450;7.346;2022-08-01T06:13:27;14.25;;;11.18;;
12587;SDS011;6359;51.450;7.346;2022-08-01T06:15:54;11.50;;;10.05;;
12587;SDS011;6359;51.450;7.346;2022-08-01T06:18:20;15.88;;;10.25;;
12587;SDS011;6359;51.450;7.346;2022-08-01T06:20:47;13.80;;;11.07;;
12587;SDS011;6359;51.450;7.346;2022-08-01T06:23:14;13.00;;;10.10;;
12587;SDS011;6359;51.450;7.346;2022-08-01T06:25:41;14.10;;;10.88;;
12587;SDS011;6359;51.450;7.346;2022-08-01T06:28:08;12.75;;;10.82;;
12587;SDS011;6359;51.450;7.346;2022-08-01T06:30:36;13.40;;;9.73;;
12587;SDS011;6359;51.450;7.346;2022-08-01T06:33:03;14.45;;;10.10;;
12587;SDS011;6359;51.450;7.346;2022-08-01T06:35:31;14.32;;;8.93;;
12587;SDS011;6359;51.450;7.346;2022-08-01T06:37:57;11.13;;;8.60;;
12587;SDS011;6359;51.450;7.346;2022-08-01T06:40:24;11.07;;;8.68;;
12587;SDS011;6359;51.450;7.346;2022-08-01T06:42:51;9.38;;;6.95;;
12587;SDS011;6359;51.450;7.346;2022-08-01T06:45:18;8.27;;;7.07;;
12587;SDS011;6359;51.450;7.346;2022-08-01T06:47:48;11.00;;;8.38;;
12587;SDS011;6359;51.450;7.346;2022-08-01T06:50:15;12.60;;;8.98;;
12587;SDS011;6359;51.450;7.346;2022-08-01T06:52:42;12.63;;;8.93;;
12587;SDS011;6359;51.450;7.346;2022-08-01T06:55:09;12.00;;;9.45;;
12587;SDS011;6359;51.450;7.346;2022-08-01T06:57:36;12.68;;;10.30;;
12587;SDS011;6359;51.450;7.346;2022-08-01T07:00:11;12.45;;;10.13;;
12587;SDS011;6359;51.450;7.346;2022-08-01T07:02:38;12.60;;;11.20;;
12587;SDS011;6359;51.450;7.346;2022-08-01T07:05:08;13.40;;;11.70;;
12587;SDS011;6359;51.450;7.346;2022-08-01T07:07:35;13.68;;;11.65;;
12587;SDS011;6359;51.450;7.346;2022-08-01T07:10:02;11.93;;;10.57;;
12587;SDS011;6359;51.450;7.346;2022-08-01T07:12:29;11.82;;;10.32;;
12587;SDS011;6359;51.450;7.346;2022-08-01T07:14:57;12.48;;;10.60;;
12587;SDS011;6359;51.450;7.346;2022-08-01T07:17:24;12.82;;;10.52;;
12587;SDS011;6359;51.450;7.346;2022-08-01T07:19:51;12.20;;;10.98;;
12587;SDS011;6359;51.450;7.346;2022-08-01T07:22:20;9.90;;;8.90;;
12587;SDS011;6359;51.450;7.346;2022-08-01T07:24:47;8.38;;;7.10;;
12587;SDS011;6359;51.450;7.346;2022-08-01T07:27:14;10.10;;;7.15;;
12587;SDS011;6359;51.450;7.346;2022-08-01T07:29:42;8.68;;;6.20;;
12587;SDS011;6359;51.450;7.346;2022-08-01T07:32:08;11.27;;;7.22;;
12587;SDS011;6359;51.450;7.346;2022-08-01T07:34:35;8.15;;;6.63;;
12587;SDS011;6359;51.450;7.346;2022-08-01T07:37:02;7.85;;;6.30;;
12587;SDS011;6359;51.450;7.346;2022-08-01T07:39:31;7.35;;;6.30;;
12587;SDS011;6359;51.450;7.346;2022-08-01T07:41:57;8.65;;;5.40;;
12587;SDS011;6359;51.450;7.346;2022-08-01T07:44:24;6.45;;;5.75;;
12587;SDS011;6359;51.450;7.346;2022-08-01T07:46:51;7.13;;;5.50;;
12587;SDS011;6359;51.450;7.346;2022-08-01T07:49:18;7.90;;;5.53;;
12587;SDS011;6359;51.450;7.346;2022-08-01T07:51:46;8.23;;;5.43;;
12587;SDS011;6359;51.450;7.346;2022-08-01T07:54:13;6.47;;;4.80;;
12587;SDS011;6359;51.450;7.346;2022-08-01T07:56:41;6.43;;;5.07;;
12587;SDS011;6359;51.450;7.346;2022-08-01T07:59:08;6.50;;;5.45;;
12587;SDS011;6359;51.450;7.346;2022-08-01T08:01:35;5.00;;;4.07;;
12587;SDS011;6359;51.450;7.346;2022-08-01T08:04:02;6.05;;;3.50;;
12587;SDS011;6359;51.450;7.346;2022-08-01T08:06:29;7.15;;;3.75;;
12587;SDS011;6359;51.450;7.346;2022-08-01T08:08:56;3.95;;;3.03;;
12587;SDS011;6359;51.450;7.346;2022-08-01T08:11:23;3.40;;;2.78;;
12587;SDS011;6359;51.450;7.346;2022-08-01T08:13:51;3.75;;;3.08;;
12587;SDS011;6359;51.450;7.346;2022-08-01T08:16:18;6.05;;;2.67;;
12587;SDS011;6359;51.450;7.346;2022-08-01T08:18:45;5.15;;;2.63;;
12587;SDS011;6359;51.450;7.346;2022-08-01T08:21:12;2.55;;;2.35;;
12587;SDS011;6359;51.450;7.346;2022-08-01T08:23:39;4.50;;;2.70;;
12587;SDS011;6359;51.450;7.346;2022-08-01T08:26:23;3.38;;;2.42;;
12587;SDS011;6359;51.450;7.346;2022-08-01T08:28:51;3.78;;;2.90;;
12587;SDS011;6359;51.450;7.346;2022-08-01T08:31:18;5.65;;;3.00;;
12587;SDS011;6359;51.450;7.346;2022-08-01T08:33:45;4.25;;;3.80;;
12587;SDS011;6359;51.450;7.346;2022-08-01T08:36:13;5.00;;;3.55;;
12587;SDS011;6359;51.450;7.346;2022-08-01T08:38:40;3.92;;;3.00;;
12587;SDS011;6359;51.450;7.346;2022-08-01T08:41:07;2.88;;;2.60;;
12587;SDS011;6359;51.450;7.346;2022-08-01T08:43:34;3.88;;;2.60;;
12587;SDS011;6359;51.450;7.346;2022-08-01T08:46:03;2.88;;;2.00;;
12587;SDS011;6359;51.450;7.346;2022-08-01T08:48:31;2.25;;;1.73;;
12587;SDS011;6359;51.450;7.346;2022-08-01T08:50:58;4.10;;;3.00;;
12587;SDS011;6359;51.450;7.346;2022-08-01T08:53:27;2.33;;;1.90;;
12587;SDS011;6359;51.450;7.346;2022-08-01T08:55:55;6.13;;;1.77;;
12587;SDS011;6359;51.450;7.346;2022-08-01T08:58:23;1.90;;;1.70;;
12587;SDS011;6359;51.450;7.346;2022-08-01T09:00:52;2.03;;;1.58;;
12587;SDS011;6359;51.450;7.346;2022-08-01T09:03:21;2.40;;;1.45;;
12587;SDS011;6359;51.450;7.346;2022-08-01T09:05:48;3.10;;;1.88;;
12587;SDS011;6359;51.450;7.346;2022-08-01T09:08:15;3.38;;;1.85;;
12587;SDS011;6359;51.450;7.346;2022-08-01T09:10:42;3.22;;;2.03;;
12587;SDS011;6359;51.450;7.346;2022-08-01T09:15:41;1.50;;;1.40;;
12587;SDS011;6359;51.450;7.346;2022-08-01T09:21:13;1.77;;;1.67;;
12587;SDS011;6359;51.450;7.346;2022-08-01T09:23:42;1.90;;;1.80;;
12587;SDS011;6359;51.450;7.346;2022-08-01T09:26:11;3.08;;;2.13;;
12587;SDS011;6359;51.450;7.346;2022-08-01T09:28:40;4.53;;;2.25;;
12587;SDS011;6359;51.450;7.346;2022-08-01T09:31:08;2.70;;;2.50;;
12587;SDS011;6359;51.450;7.346;2022-08-01T09:33:49;2.60;;;2.40;;
12587;SDS011;6359;51.450;7.346;2022-08-01T09:36:18;2.50;;;2.30;;
12587;SDS011;6359;51.450;7.346;2022-08-01T09:38:47;2.10;;;1.90;;
12587;SDS011;6359;51.450;7.346;2022-08-01T09:41:14;3.17;;;1.98;;
12587;SDS011;6359;51.450;7.346;2022-08-01T09:43:41;1.92;;;1.70;;
12587;SDS011;6359;51.450;7.346;2022-08-01T09:46:15;1.95;;;1.85;;
12587;SDS011;6359;51.450;7.346;2022-08-01T09:48:55;1.65;;;1.55;;
12587;SDS011;6359;51.450;7.346;2022-08-01T09:51:27;2.13;;;1.30;;
12587;SDS011;6359;51.450;7.346;2022-08-01T09:53:55;1.55;;;1.40;;
12587;SDS011;6359;51.450;7.346;2022-08-01T09:56:22;3.33;;;1.58;;
12587;SDS011;6359;51.450;7.346;2022-08-01T09:58:50;2.03;;;1.48;;
12587;SDS011;6359;51.450;7.346;2022-08-01T10:01:19;1.40;;;1.30;;
12587;SDS011;6359;51.450;7.346;2022-08-01T10:03:47;2.60;;;1.23;;
12587;SDS011;6359;51.450;7.346;2022-08-01T10:06:32;1.30;;;1.20;;
12587;SDS011;6359;51.450;7.346;2022-08-01T10:08:59;2.35;;;1.10;;
12587;SDS011;6359;51.450;7.346;2022-08-01T10:11:25;2.63;;;1.35;;
12587;SDS011;6359;51.450;7.346;2022-08-01T10:13:54;2.55;;;1.20;;
12587;SDS011;6359;51.450;7.346;2022-08-01T10:16:22;1.65;;;0.93;;
12587;SDS011;6359;51.450;7.346;2022-08-01T10:18:50;5.50;;;4.97;;
12587;SDS011;6359;51.450;7.346;2022-08-01T10:21:20;1.20;;;1.10;;
12587;SDS011;6359;51.450;7.346;2022-08-01T10:23:50;2.63;;;1.25;;
12587;SDS011;6359;51.450;7.346;2022-08-01T10:26:20;1.33;;;1.17;;
12587;SDS011;6359;51.450;7.346;2022-08-01T10:28:48;2.35;;;1.20;;
12587;SDS011;6359;51.450;7.346;2022-08-01T10:31:16;1.98;;;1.10;;
12587;SDS011;6359;51.450;7.346;2022-08-01T10:33:44;1.17;;;1.08;;
12587;SDS011;6359;51.450;7.346;2022-08-01T10:36:11;1.20;;;1.10;;
12587;SDS011;6359;51.450;7.346;2022-08-01T10:38:40;2.00;;;0.90;;
12587;SDS011;6359;51.450;7.346;2022-08-01T10:41:07;2.53;;;1.52;;
12587;SDS011;6359;51.450;7.346;2022-08-01T10:43:34;1.27;;;1.17;;
12587;SDS011;6359;51.450;7.346;2022-08-01T10:46:01;2.60;;;1.15;;
12587;SDS011;6359;51.450;7.346;2022-08-01T10:48:31;1.80;;;1.05;;
12587;SDS011;6359;51.450;7.346;2022-08-01T10:51:05;2.00;;;1.25;;
12587;SDS011;6359;51.450;7.346;2022-08-01T10:53:33;1.85;;;1.00;;
12587;SDS011;6359;51.450;7.346;2022-08-01T10:56:02;1.23;;;1.13;;
12587;SDS011;6359;51.450;7.346;2022-08-01T10:58:31;1.08;;;1.08;;
12587;SDS011;6359;51.450;7.346;2022-08-01T11:01:17;1.48;;;1.38;;
12587;SDS011;6359;51.450;7.346;2022-08-01T11:04:01;1.58;;;1.20;;
12587;SDS011;6359;51.450;7.346;2022-08-01T11:09:31;2.00;;;1.50;;
12587;SDS011;6359;51.450;7.346;2022-08-01T11:12:07;1.60;;;1.50;;
12587;SDS011;6359;51.450;7.346;2022-08-01T11:17:36;6.15;;;1.50;;
12587;SDS011;6359;51.450;7.346;2022-08-01T11:20:06;2.28;;;1.23;;
12587;SDS011;6359;51.450;7.346;2022-08-01T11:26:06;1.42;;;1.30;;
12587;SDS011;6359;51.450;7.346;2022-08-01T11:28:36;1.15;;;1.05;;
12587;SDS011;6359;51.450;7.346;2022-08-01T11:33:52;0.90;;;0.90;;
12587;SDS011;6359;51.450;7.346;2022-08-01T11:36:20;1.05;;;0.88;;
12587;SDS011;6359;51.450;7.346;2022-08-01T11:38:48;1.42;;;1.25;;
12587;SDS011;6359;51.450;7.346;2022-08-01T11:41:37;0.88;;;0.80;;
12587;SDS011;6359;51.450;7.346;2022-08-01T11:44:06;1.23;;;0.80;;
12587;SDS011;6359;51.450;7.346;2022-08-01T11:46:50;1.95;;;1.00;;
12587;SDS011;6359;51.450;7.346;2022-08-01T11:49:22;0.73;;;0.70;;
12587;SDS011;6359;51.450;7.346;2022-08-01T11:51:58;2.15;;;0.65;;
12587;SDS011;6359;51.450;7.346;2022-08-01T11:54:27;1.20;;;0.60;;
12587;SDS011;6359;51.450;7.346;2022-08-01T11:56:55;0.68;;;0.68;;
12587;SDS011;6359;51.450;7.346;2022-08-01T11:59:24;3.03;;;0.85;;
12587;SDS011;6359;51.450;7.346;2022-08-01T12:01:52;0.80;;;0.60;;
12587;SDS011;6359;51.450;7.346;2022-08-01T12:04:19;0.55;;;0.55;;
12587;SDS011;6359;51.450;7.346;2022-08-01T12:06:46;0.95;;;0.70;;
12587;SDS011;6359;51.450;7.346;2022-08-01T12:09:16;0.52;;;0.52;;
12587;SDS011;6359;51.450;7.346;2022-08-01T12:11:45;1.00;;;1.00;;
12587;SDS011;6359;51.450;7.346;2022-08-01T12:14:15;1.35;;;0.70;;
12587;SDS011;6359;51.450;7.346;2022-08-01T12:16:52;0.50;;;0.50;;
12587;SDS011;6359;51.450;7.346;2022-08-01T12:19:21;0.40;;;0.40;;
12587;SDS011;6359;51.450;7.346;2022-08-01T12:24:40;1.95;;;0.70;;
12587;SDS011;6359;51.450;7.346;2022-08-01T12:27:08;1.85;;;0.45;;
12587;SDS011;6359;51.450;7.346;2022-08-01T12:29:38;0.50;;;0.50;;
12587;SDS011;6359;51.450;7.346;2022-08-01T12:32:24;0.90;;;0.57;;
12587;SDS011;6359;51.450;7.346;2022-08-01T12:34:53;0.68;;;0.68;;
12587;SDS011;6359;51.450;7.346;2022-08-01T12:37:21;0.85;;;0.77;;
12587;SDS011;6359;51.450;7.346;2022-08-01T12:39:48;0.75;;;0.60;;
12587;SDS011;6359;51.450;7.346;2022-08-01T12:42:15;0.88;;;0.88;;
12587;SDS011;6359;51.450;7.346;2022-08-01T12:44:43;1.05;;;1.00;;
12587;SDS011;6359;51.450;7.346;2022-08-01T12:47:12;0.80;;;0.80;;
12587;SDS011;6359;51.450;7.346;2022-08-01T12:49:42;0.55;;;0.55;;
12587;SDS011;6359;51.450;7.346;2022-08-01T12:52:10;0.60;;;0.60;;
12587;SDS011;6359;51.450;7.346;2022-08-01T12:57:43;0.60;;;0.60;;
12587;SDS011;6359;51.450;7.346;2022-08-01T13:00:19;0.60;;;0.60;;
12587;SDS011;6359;51.450;7.346;2022-08-01T13:02:48;2.20;;;0.88;;
12587;SDS011;6359;51.450;7.346;2022-08-01T13:05:18;0.90;;;0.40;;
12587;SDS011;6359;51.450;7.346;2022-08-01T13:07:46;0.68;;;0.68;;
12587;SDS011;6359;51.450;7.346;2022-08-01T13:10:15;1.90;;;1.30;;
12587;SDS011;6359;51.450;7.346;2022-08-01T13:12:51;1.10;;;1.00;;
12587;SDS011;6359;51.450;7.346;2022-08-01T13:15:20;1.15;;;0.90;;
12587;SDS011;6359;51.450;7.346;2022-08-01T13:17:50;2.78;;;1.15;;
12587;SDS011;6359;51.450;7.346;2022-08-01T13:20:23;0.40;;;0.40;;
12587;SDS011;6359;51.450;7.346;2022-08-01T13:22:51;0.63;;;0.63;;
12587;SDS011;6359;51.450;7.346;2022-08-01T13:25:18;0.70;;;0.70;;
12587;SDS011;6359;51.450;7.346;2022-08-01T13:27:45;0.85;;;0.75;;
12587;SDS011;6359;51.450;7.346;2022-08-01T13:30:13;0.70;;;0.70;;
12587;SDS011;6359;51.450;7.346;2022-08-01T13:32:41;0.85;;;0.60;;
12587;SDS011;6359;51.450;7.346;2022-08-01T13:35:10;2.20;;;0.60;;
12587;SDS011;6359;51.450;7.346;2022-08-01T13:37:40;0.60;;;0.60;;
12587;SDS011;6359;51.450;7.346;2022-08-01T13:40:08;1.10;;;0.60;;
12587;SDS011;6359;51.450;7.346;2022-08-01T13:42:36;0.65;;;0.65;;
12587;SDS011;6359;51.450;7.346;2022-08-01T13:45:05;4.15;;;0.70;;
12587;SDS011;6359;51.450;7.346;2022-08-01T13:47:36;4.18;;;0.70;;
12587;SDS011;6359;51.450;7.346;2022-08-01T13:50:04;0.85;;;0.85;;
12587;SDS011;6359;51.450;7.346;2022-08-01T13:52:31;0.93;;;0.60;;
12587;SDS011;6359;51.450;7.346;2022-08-01T13:54:59;2.10;;;1.27;;
12587;SDS011;6359;51.450;7.346;2022-08-01T13:57:27;0.80;;;0.80;;
12587;SDS011;6359;51.450;7.346;2022-08-01T13:59:54;1.52;;;1.00;;
12587;SDS011;6359;51.450;7.346;2022-08-01T14:02:24;0.95;;;0.95;;
12587;SDS011;6359;51.450;7.346;2022-08-01T14:04:51;3.42;;;0.90;;
12587;SDS011;6359;51.450;7.346;2022-08-01T14:07:19;1.17;;;0.98;;
12587;SDS011;6359;51.450;7.346;2022-08-01T14:09:46;1.30;;;0.98;;
12587;SDS011;6359;51.450;7.346;2022-08-01T14:12:14;0.75;;;0.75;;
12587;SDS011;6359;51.450;7.346;2022-08-01T14:14:41;2.17;;;1.00;;
12587;SDS011;6359;51.450;7.346;2022-08-01T14:17:08;0.82;;;0.82;;
12587;SDS011;6359;51.450;7.346;2022-08-01T14:19:35;2.92;;;0.85;;
12587;SDS011;6359;51.450;7.346;2022-08-01T14:22:02;1.10;;;1.00;;
12587;SDS011;6359;51.450;7.346;2022-08-01T14:24:29;1.48;;;0.70;;
12587;SDS011;6359;51.450;7.346;2022-08-01T14:26:56;0.80;;;0.80;;
12587;SDS011;6359;51.450;7.346;2022-08-01T14:29:24;0.90;;;0.90;;
12587;SDS011;6359;51.450;7.346;2022-08-01T14:31:51;7.95;;;1.05;;
12587;SDS011;6359;51.450;7.346;2022-08-01T14:34:18;0.82;;;0.80;;
12587;SDS011;6359;51.450;7.346;2022-08-01T14:36:45;1.17;;;0.95;;
12587;SDS011;6359;51.450;7.346;2022-08-01T14:39:12;0.75;;;0.75;;
12587;SDS011;6359;51.450;7.346;2022-08-01T14:41:39;0.80;;;0.80;;
12587;SDS011;6359;51.450;7.346;2022-08-01T14:44:06;2.33;;;0.90;;
12587;SDS011;6359;51.450;7.346;2022-08-01T14:46:35;0.73;;;0.73;;
12587;SDS011;6359;51.450;7.346;2022-08-01T14:49:02;1.02;;;0.93;;
12587;SDS011;6359;51.450;7.346;2022-08-01T14:51:29;1.55;;;1.42;;
12587;SDS011;6359;51.450;7.346;2022-08-01T14:53:58;2.30;;;1.40;;
12587;SDS011;6359;51.450;7.346;2022-08-01T14:56:25;1.27;;;1.02;;
12587;SDS011;6359;51.450;7.346;2022-08-01T14:58:52;3.88;;;1.20;;
12587;SDS011;6359;51.450;7.346;2022-08-01T15:01:19;4.72;;;1.30;;
12587;SDS011;6359;51.450;7.346;2022-08-01T15:03:47;1.70;;;1.05;;
12587;SDS011;6359;51.450;7.346;2022-08-01T15:06:15;2.55;;;1.13;;
12587;SDS011;6359;51.450;7.346;2022-08-01T15:08:42;1.15;;;1.13;;
12587;SDS011;6359;51.450;7.346;2022-08-01T15:11:09;1.10;;;1.00;;
12587;SDS011;6359;51.450;7.346;2022-08-01T15:13:36;1.85;;;1.02;;
12587;SDS011;6359;51.450;7.346;2022-08-01T15:16:03;3.03;;;0.85;;
12587;SDS011;6359;51.450;7.346;2022-08-01T15:18:30;1.25;;;0.98;;
12587;SDS011;6359;51.450;7.346;2022-08-01T15:20:58;1.55;;;1.10;;
12587;SDS011;6359;51.450;7.346;2022-08-01T15:23:25;1.00;;;1.00;;
12587;SDS011;6359;51.450;7.346;2022-08-01T15:25:52;2.00;;;1.10;;
12587;SDS011;6359;51.450;7.346;2022-08-01T15:28:19;3.10;;;1.05;;
12587;SDS011;6359;51.450;7.346;2022-08-01T15:30:46;1.92;;;1.13;;
12587;SDS011;6359;51.450;7.346;2022-08-01T15:33:13;1.88;;;1.00;;
12587;SDS011;6359;51.450;7.346;2022-08-01T15:35:40;3.72;;;1.25;;
12587;SDS011;6359;51.450;7.346;2022-08-01T15:38:09;2.72;;;1.38;;